Budapest Ferihegy, Hungary

9:03 AM CEST on July 25, 2016 (GMT +0200)
Budapest | | Change Station

Elev 417 ft 47.42 °N, 19.21 °E | Updated 2 minutes ago

Mostly Cloudy
Mostly Cloudy
78.8 °F
Feels Like 82 °F
N
0.0
Wind Variable Wind from SE
Gusts 0.0 mph

Today
High -- | Low -- °F
--% Chance of Precip.
Yesterday
High -- | Low -- °F
Precip. -- in
Pressure 30.01 in
Visibility 6.2 miles
Clouds Scattered Clouds 4000 ft
Mostly Cloudy 20000 ft
Heat Index 82 °F
Dew Point 72 °F
Humidity 79%
Rainfall 0.00 in
Snow Depth Not available.
5:12 AM 8:25 PM
Waning Gibbous, 69% visible
METAR LHBP 250700Z 10005KT 050V130 9999 SCT040 BKN200 25/19 Q1016 NOSIG
Pressure 30.01 in
Visibility 6.2 miles
Clouds Scattered Clouds 4000 ft
Mostly Cloudy 20000 ft
Heat Index 82 °F
Dew Point 72 °F
Humidity 79%
Rainfall 0.00 in
Snow Depth Not available.
5:12 AM 8:25 PM
Waning Gibbous, 69% visible
METAR LHBP 250700Z 10005KT 050V130 9999 SCT040 BKN200 25/19 Q1016 NOSIG

10-Day Weather Forecast

×

Almanac

Astronomy

Jul. 25, 2016 Rise Set
Actual Time
Civil Twilight
Nautical Twilight
Astronomical Twilight
Moon
Length of Visible Light
Length of Day
Tomorrow will be .
, % of the Moon is Illuminated

Today's Extremes

Country Highs Country Lows

Community

WunderPhotos

Upload Photos

1,927,274 photos uploaded!

WunderBlog® & News

Nearby

Air Quality

  Air Quality AQ Index Pollutant
Not available.

Snow Depth

Station Depth Elevation

Earthquake Activity

City Distance Mag. Time & Date
Minimum magnitude displayed is 2.5.

Coastal Water Temperatures

Place Temperature

Stations

Nearby Weather Stations

Station Location Temp. Windchill Dew Point Humidity Wind Precip. Elev Updated Type